Time;durP1;ratioP1;P1;durP2;ratioP2;P2;SDS_P1;SDS_P2;PMS_P1;PMS_P2;Temp;Humidity;BMP_temperature;BMP_pressure;BME280_temperature;BME280_humidity;BME280_pressure;Samples;Min_cycle;Max_cycle;Signal;HPM_P1;HPM_P2
2022/12/26 00:02:21;;;;;;;1.60;1.25;;;;;;;9.24;100.00;100192.22;6215924;22;20077;-76
2022/12/26 00:04:48;;;;;;;1.77;1.20;;;;;;;9.22;100.00;100188.78;6243193;22;20012;-75
2022/12/26 00:07:14;;;;;;;1.67;1.58;;;;;;;9.21;100.00;100189.66;6241479;22;20020;-75
2022/12/26 00:09:42;;;;;;;1.67;1.58;;;;;;;9.24;100.00;100190.50;6243732;22;20015;-75
2022/12/26 00:12:08;;;;;;;1.92;1.83;;;;;;;9.21;100.00;100195.75;6218819;22;20111;-75
2022/12/26 00:14:35;;;;;;;1.90;1.80;;;;;;;9.21;100.00;100193.13;6218836;22;20016;-76
2022/12/26 00:17:01;;;;;;;1.88;1.77;;;;;;;9.18;100.00;100192.31;6193746;22;20046;-77
2022/12/26 00:19:27;;;;;;;2.00;1.90;;;;;;;9.17;100.00;100175.75;6243595;22;20093;-76
2022/12/26 00:21:56;;;;;;;4.15;2.60;;;;;;;9.15;100.00;100188.00;6217950;22;20015;-76
2022/12/26 00:24:22;;;;;;;2.53;2.42;;;;;;;9.14;100.00;100188.88;6244762;22;20007;-76
2022/12/26 00:26:50;;;;;;;3.28;2.80;;;;;;;9.13;100.00;100187.13;6245662;22;20058;-74
2022/12/26 00:29:17;;;;;;;2.95;2.75;;;;;;;9.14;100.00;100191.47;6219370;22;20030;-76
2022/12/26 00:31:43;;;;;;;2.83;2.60;;;;;;;9.12;100.00;100187.16;6244716;22;20035;-75
2022/12/26 00:34:12;;;;;;;3.50;3.20;;;;;;;9.11;100.00;100181.03;6273122;22;20015;-74
2022/12/26 00:36:38;;;;;;;3.38;3.10;;;;;;;9.10;100.00;100179.34;6273066;22;20015;-74
2022/12/26 00:39:05;;;;;;;3.90;3.50;;;;;;;9.07;100.00;100168.91;6245826;22;20015;-77
2022/12/26 00:41:32;;;;;;;3.58;3.28;;;;;;;9.08;100.00;100179.34;6271312;22;20035;-78
2022/12/26 00:43:58;;;;;;;3.63;3.33;;;;;;;9.08;100.00;100175.88;6220486;22;20046;-77
2022/12/26 00:46:27;;;;;;;4.28;3.97;;;;;;;9.07;100.00;100172.41;6246655;22;20026;-76
2022/12/26 00:48:53;;;;;;;3.35;3.15;;;;;;;9.05;100.00;100174.16;6246253;22;20008;-76
2022/12/26 00:51:20;;;;;;;4.15;3.85;;;;;;;9.05;100.00;100171.53;6272124;22;20327;-76
2022/12/26 00:53:46;;;;;;;4.45;4.05;;;;;;;9.04;100.00;100180.25;6247796;22;20016;-76
2022/12/26 00:56:16;;;;;;;4.18;3.78;;;;;;;9.04;100.00;100185.47;6273969;22;20090;-76
2022/12/26 00:58:42;;;;;;;3.65;3.40;;;;;;;9.05;100.00;100181.97;6247623;22;20011;-76
2022/12/26 01:01:15;;;;;;;4.28;3.80;;;;;;;9.06;100.00;100186.34;6221159;22;20030;-75
2022/12/26 01:03:43;;;;;;;4.20;3.90;;;;;;;9.05;100.00;100195.03;6221072;22;20015;-75
2022/12/26 01:06:09;;;;;;;4.93;4.00;;;;;;;9.05;100.00;100210.69;6220412;22;20062;-75
2022/12/26 01:08:36;;;;;;;3.15;2.95;;;;;;;9.03;100.00;100196.78;6245360;22;20016;-75
2022/12/26 01:11:06;;;;;;;3.60;3.30;;;;;;;9.03;100.00;100199.41;6245341;22;20007;-76
2022/12/26 01:13:33;;;;;;;4.72;3.72;;;;;;;9.01;100.00;100190.72;6244239;22;20023;-75
2022/12/26 01:15:59;;;;;;;4.72;4.32;;;;;;;9.01;100.00;100189.84;6245142;22;20008;-76
2022/12/26 01:18:26;;;;;;;6.00;5.47;;;;;;;8.99;100.00;100189.88;6219069;22;20028;-75
2022/12/26 01:21:10;;;;;;;5.82;5.30;;;;;;;8.99;100.00;100187.25;6243954;22;20016;-74
2022/12/26 01:23:36;;;;;;;7.30;6.40;;;;;;;8.96;100.00;100194.25;6244537;22;20020;-74
2022/12/26 01:26:05;;;;;;;8.05;7.15;;;;;;;8.91;100.00;100195.16;6219546;22;20011;-75
2022/12/26 01:28:32;;;;;;;7.65;6.85;;;;;;;8.89;100.00;100203.88;6244658;22;20062;-75
2022/12/26 01:31:05;;;;;;;7.53;6.63;;;;;;;8.86;100.00;100210.00;6244178;22;20431;-74
2022/12/26 01:33:33;;;;;;;9.90;7.38;;;;;;;8.84;100.00;100210.91;6243682;22;20024;-76
2022/12/26 01:36:00;;;;;;;7.45;6.63;;;;;;;8.80;100.00;100210.09;6243947;22;20423;-76
2022/12/26 01:38:26;;;;;;;7.82;6.35;;;;;;;8.76;100.00;100200.53;6244211;22;20683;-76
2022/12/26 01:41:15;;;;;;;6.43;5.47;;;;;;;8.72;100.00;100189.28;6244093;22;20023;-76
2022/12/26 01:44:00;;;;;;;7.00;6.35;;;;;;;8.69;100.00;100206.69;6248250;22;20011;-76
2022/12/26 01:46:41;;;;;;;7.07;6.35;;;;;;;8.64;100.00;100211.94;6244782;22;20011;-76
2022/12/26 01:49:29;;;;;;;7.43;6.03;;;;;;;8.62;100.00;100205.88;6243138;22;20020;-76
2022/12/26 01:52:25;;;;;;;5.93;5.35;;;;;;;8.59;100.00;100217.19;6245976;22;20377;-76
2022/12/26 01:54:54;;;;;;;6.70;4.93;;;;;;;8.53;100.00;100219.00;6246431;22;20426;-76
2022/12/26 01:57:39;;;;;;;6.03;5.25;;;;;;;8.49;100.00;100225.97;6245851;22;20012;-76
2022/12/26 02:00:08;;;;;;;6.15;4.68;;;;;;;8.46;100.00;100223.41;6246108;22;20022;-76
2022/12/26 02:05:32;;;;;;;5.60;5.03;;;;;;;8.38;100.00;100225.13;6244183;22;20020;-76
2022/12/26 02:05:35;;;;;;;7.20;5.40;;;;;;;8.28;100.00;100220.00;6249290;22;20369;-75
2022/12/26 02:08:21;;;;;;;8.18;5.35;;;;;;;8.20;100.00;100211.38;6219887;22;20350;-75
2022/12/26 02:10:59;;;;;;;8.32;5.15;;;;;;;8.14;100.00;100216.59;6244836;22;20065;-76
2022/12/26 02:13:27;;;;;;;5.90;5.30;;;;;;;8.08;100.00;100235.78;6244339;22;20007;-76
2022/12/26 02:15:54;;;;;;;7.68;5.88;;;;;;;8.07;100.00;100234.03;6245380;22;20069;-75
2022/12/26 02:18:20;;;;;;;7.00;5.32;;;;;;;8.08;100.00;100238.38;6245474;22;20057;-77
2022/12/26 02:21:08;;;;;;;8.48;6.22;;;;;;;8.10;100.00;100246.19;6243801;22;20016;-75
2022/12/26 02:24:11;;;;;;;7.38;5.88;;;;;;;8.13;100.00;100246.16;6243155;22;20330;-76
2022/12/26 02:27:02;;;;;;;8.07;6.07;;;;;;;8.16;100.00;100243.56;6271242;22;20008;-75
2022/12/26 02:30:01;;;;;;;8.48;6.30;;;;;;;8.19;100.00;100245.28;6243527;22;20019;-75
2022/12/26 02:32:47;;;;;;;9.82;7.15;;;;;;;8.21;100.00;100248.72;6242214;22;20018;-75
2022/12/26 02:35:32;;;;;;;10.80;7.03;;;;;;;8.20;100.00;100246.97;6243408;22;20019;-75
2022/12/26 02:38:27;;;;;;;9.43;6.63;;;;;;;8.19;100.00;100240.06;6244910;22;20323;-74
2022/12/26 02:41:20;;;;;;;9.32;6.95;;;;;;;8.18;100.00;100233.09;6242989;22;20011;-76
2022/12/26 02:47:01;;;;;;;10.82;7.05;;;;;;;8.18;100.00;100233.97;6215655;22;20077;-75
2022/12/26 02:47:06;;;;;;;10.98;8.57;;;;;;;8.19;100.00;100238.31;6247902;22;20163;-74
2022/12/26 03:14:29;;;;;;;7.57;6.05;;;;;;;8.31;100.00;100244.34;6246729;22;20453;-75
2022/12/26 03:17:20;;;;;;;9.25;7.55;;;;;;;8.31;100.00;100239.13;6244329;22;20018;-75
2022/12/26 03:20:14;;;;;;;8.27;6.10;;;;;;;8.33;100.00;100240.84;6248291;22;20019;-75
2022/12/26 03:22:46;;;;;;;6.53;5.78;;;;;;;8.36;100.00;100243.41;6243338;22;20012;-76
2022/12/26 03:28:08;;;;;;;8.32;5.85;;;;;;;8.41;100.00;100235.56;6222310;22;20722;-75
2022/12/26 03:30:49;;;;;;;6.55;5.25;;;;;;;8.43;100.00;100233.81;6218472;22;20402;-76
2022/12/26 03:36:41;;;;;;;5.35;4.78;;;;;;;8.50;100.00;100235.53;6248858;22;20015;-75
2022/12/26 04:44:13;;;;;;;7.82;6.78;;;;;;;8.94;100.00;100264.75;6223746;22;20102;-75
2022/12/26 04:46:43;;;;;;;7.63;6.38;;;;;;;8.87;100.00;100266.56;6220343;22;20012;-74
2022/12/26 04:52:00;;;;;;;7.55;6.75;;;;;;;8.78;100.00;100264.03;6247721;22;20091;-75
2022/12/26 04:54:27;;;;;;;8.02;6.97;;;;;;;8.72;100.00;100262.34;6244767;22;20020;-75
2022/12/26 04:56:54;;;;;;;10.05;7.65;;;;;;;8.73;100.00;100261.44;6244274;22;20057;-75
2022/12/26 04:59:22;;;;;;;10.77;8.30;;;;;;;8.61;100.00;100261.53;6244664;22;20015;-74
2022/12/26 05:10:27;;;;;;;6.20;5.60;;;;;;;8.62;100.00;100281.53;6222473;22;20018;-74
2022/12/26 05:12:55;;;;;;;4.60;4.03;;;;;;;8.66;100.00;100287.63;6244444;22;20015;-75
2022/12/26 05:15:21;;;;;;;6.03;5.40;;;;;;;8.62;100.00;100291.97;6219293;22;20018;-75
2022/12/26 05:29:06;;;;;;;5.10;3.97;;;;;;;8.71;100.00;100309.31;6247892;22;20014;-76
2022/12/26 05:31:33;;;;;;;6.38;4.45;;;;;;;8.68;100.00;100311.94;6242776;22;20015;-76
2022/12/26 05:34:04;;;;;;;4.65;4.15;;;;;;;8.72;100.00;100298.00;6244576;22;20012;-76
2022/12/26 05:36:35;;;;;;;5.18;4.38;;;;;;;8.65;100.00;100307.59;6245665;22;20062;-75
2022/12/26 05:39:03;;;;;;;6.50;4.45;;;;;;;8.72;100.00;100316.25;6271252;22;20012;-75
2022/12/26 05:41:29;;;;;;;5.68;4.35;;;;;;;8.64;100.00;100318.91;6243068;22;20016;-75
2022/12/26 05:43:56;;;;;;;5.88;5.25;;;;;;;8.59;100.00;100329.41;6243017;22;20110;-75
2022/12/26 05:46:22;;;;;;;6.07;5.28;;;;;;;8.64;100.00;100328.50;6269401;22;20020;-75
2022/12/26 05:48:48;;;;;;;5.07;4.55;;;;;;;8.61;100.00;100337.22;6243130;22;20089;-75
2022/12/26 05:51:15;;;;;;;7.63;5.35;;;;;;;8.63;100.00;100331.97;6240968;22;20022;-75
2022/12/26 05:53:41;;;;;;;4.63;4.22;;;;;;;8.62;100.00;100331.13;6244080;22;20011;-75
2022/12/26 05:56:13;;;;;;;5.95;4.60;;;;;;;8.58;100.00;100332.88;6243626;22;20016;-74
2022/12/26 05:58:41;;;;;;;5.03;4.53;;;;;;;8.62;100.00;100325.91;6218480;22;20015;-75
2022/12/26 06:01:17;;;;;;;7.82;3.95;;;;;;;8.61;100.00;100332.84;6215674;22;20069;-75
2022/12/26 06:03:48;;;;;;;5.53;4.22;;;;;;;8.69;100.00;100332.78;6242884;22;20011;-76
2022/12/26 06:06:16;;;;;;;3.97;3.58;;;;;;;8.74;100.00;100325.81;6242808;22;20018;-75
2022/12/26 06:08:43;;;;;;;4.60;3.80;;;;;;;8.71;100.00;100315.41;6271077;22;20011;-75
2022/12/26 06:11:12;;;;;;;4.22;3.60;;;;;;;8.67;100.00;100318.03;6242616;22;20065;-76
2022/12/26 06:13:40;;;;;;;3.97;3.53;;;;;;;8.65;100.00;100323.25;6218675;22;20022;-76
2022/12/26 06:16:12;;;;;;;4.43;3.75;;;;;;;8.60;100.00;100318.09;6244870;22;20018;-76
2022/12/26 06:18:40;;;;;;;4.40;3.40;;;;;;;8.52;100.00;100321.63;6243839;22;20012;-76
2022/12/26 06:21:13;;;;;;;5.85;4.25;;;;;;;8.38;100.00;100319.91;6242977;22;20648;-77
2022/12/26 06:23:40;;;;;;;6.15;4.22;;;;;;;8.23;100.00;100315.63;6243699;22;20023;-74
2022/12/26 06:26:09;;;;;;;4.82;3.90;;;;;;;8.18;100.00;100325.22;6270793;22;20075;-76
2022/12/26 06:28:36;;;;;;;5.78;4.78;;;;;;;8.09;100.00;100327.88;6243773;22;20011;-75
2022/12/26 06:31:06;;;;;;;6.72;5.07;;;;;;;7.98;100.00;100342.66;6242940;22;20776;-75
2022/12/26 06:33:32;;;;;;;5.05;4.25;;;;;;;7.91;100.00;100350.53;6241431;22;20012;-75
2022/12/26 06:36:11;;;;;;;7.47;5.40;;;;;;;7.84;100.00;100348.81;6241778;22;20011;-75
2022/12/26 06:38:38;;;;;;;5.47;4.20;;;;;;;7.80;100.00;100351.44;6218678;22;20015;-75
2022/12/26 06:41:07;;;;;;;5.88;4.20;;;;;;;7.73;100.00;100361.88;6217869;22;20035;-74
2022/12/26 06:43:33;;;;;;;6.00;4.63;;;;;;;7.67;100.00;100359.25;6242827;22;20022;-76
2022/12/26 06:46:02;;;;;;;5.05;4.55;;;;;;;7.66;100.00;100359.28;6244284;22;20012;-74
2022/12/26 06:48:29;;;;;;;10.77;6.18;;;;;;;7.69;100.00;100359.25;6243756;22;20066;-75
2022/12/26 06:50:56;;;;;;;6.18;5.57;;;;;;;7.74;100.00;100347.97;6243654;22;20353;-75
2022/12/26 06:53:24;;;;;;;6.57;5.05;;;;;;;7.74;100.00;100352.28;6244521;22;20008;-75
2022/12/26 06:55:51;;;;;;;7.35;5.75;;;;;;;7.74;100.00;100354.91;6244728;22;20015;-75
2022/12/26 06:58:18;;;;;;;6.63;5.38;;;;;;;7.69;100.00;100348.84;6243154;22;20016;-75
2022/12/26 07:00:44;;;;;;;7.50;5.20;;;;;;;7.73;100.00;100342.75;6245196;22;20073;-75
2022/12/26 07:03:11;;;;;;;7.78;5.57;;;;;;;7.80;100.00;100334.06;6245138;22;20464;-76
2022/12/26 07:05:38;;;;;;;6.32;5.38;;;;;;;7.77;100.00;100344.50;6246290;22;20004;-75
2022/12/26 07:08:05;;;;;;;8.20;5.63;;;;;;;7.78;100.00;100341.00;6245552;22;20026;-75
2022/12/26 07:10:36;;;;;;;6.93;6.03;;;;;;;7.76;100.00;100329.72;6245332;22;20323;-75
2022/12/26 07:13:02;;;;;;;6.43;5.57;;;;;;;7.70;100.00;100335.78;6244421;22;20082;-76
2022/12/26 07:15:29;;;;;;;7.35;5.25;;;;;;;7.69;100.00;100346.22;6243577;22;20042;-75
2022/12/26 07:17:55;;;;;;;8.82;6.20;;;;;;;7.65;100.00;100354.94;6243814;22;20054;-75
2022/12/26 07:20:22;;;;;;;7.90;6.38;;;;;;;7.65;100.00;100357.53;6243351;22;20069;-75
2022/12/26 07:22:48;;;;;;;8.68;6.57;;;;;;;7.63;100.00;100344.50;6243021;22;20043;-75
2022/12/26 07:25:14;;;;;;;8.73;6.18;;;;;;;7.63;100.00;100352.31;6242474;22;20011;-75
2022/12/26 07:27:41;;;;;;;7.85;6.13;;;;;;;7.61;100.00;100357.53;6243487;22;20012;-76
2022/12/26 07:30:08;;;;;;;9.35;7.43;;;;;;;7.59;100.00;100346.25;6242499;22;20015;-75
2022/12/26 07:32:35;;;;;;;11.25;7.55;;;;;;;7.68;100.00;100360.13;6242175;22;20027;-75
2022/12/26 07:35:01;;;;;;;9.27;6.20;;;;;;;7.66;100.00;100354.91;6244368;22;20085;-76
2022/12/26 07:37:28;;;;;;;9.52;6.78;;;;;;;7.74;100.00;100353.19;6245486;22;20016;-75
2022/12/26 07:39:54;;;;;;;10.07;7.00;;;;;;;7.75;100.00;100360.09;6245795;22;20095;-75
2022/12/26 07:42:21;;;;;;;10.77;7.38;;;;;;;7.80;100.00;100382.72;6244140;22;20423;-77
2022/12/26 07:44:47;;;;;;;10.30;6.82;;;;;;;7.82;100.00;100370.53;6272690;22;20038;-74
2022/12/26 07:47:14;;;;;;;7.57;6.22;;;;;;;7.83;100.00;100374.88;6245442;22;20019;-74
2022/12/26 07:49:40;;;;;;;8.10;6.15;;;;;;;7.82;100.00;100384.41;6244981;22;20019;-74
2022/12/26 07:52:07;;;;;;;7.35;5.95;;;;;;;7.83;100.00;100387.91;6217051;22;20012;-75
2022/12/26 07:54:33;;;;;;;24.05;9.32;;;;;;;7.82;100.00;100400.03;6244976;22;20303;-75
2022/12/26 07:56:59;;;;;;;11.75;7.47;;;;;;;7.94;100.00;100407.00;6244923;22;20449;-75
2022/12/26 07:59:27;;;;;;;8.85;6.70;;;;;;;7.92;100.00;100400.91;6219803;22;20023;-74
2022/12/26 08:01:55;;;;;;;10.27;7.00;;;;;;;7.95;100.00;100406.09;6245075;22;20004;-75
2022/12/26 08:04:22;;;;;;;9.80;6.88;;;;;;;7.97;100.00;100395.69;6219924;22;20015;-76
2022/12/26 08:06:48;;;;;;;11.07;7.00;;;;;;;7.97;100.00;100398.31;6272418;22;20018;-75
2022/12/26 08:09:15;;;;;;;9.65;7.07;;;;;;;8.01;100.00;100400.88;6244677;22;20012;-75
2022/12/26 08:11:42;;;;;;;8.40;6.40;;;;;;;8.08;100.00;100401.72;6217413;22;20035;-74
2022/12/26 08:14:12;;;;;;;10.13;7.00;;;;;;;8.07;100.00;100405.19;6244007;22;20024;-75
2022/12/26 08:16:38;;;;;;;8.52;6.88;;;;;;;8.14;100.00;100401.72;6246134;22;20008;-74
2022/12/26 08:19:05;;;;;;;9.93;6.60;;;;;;;8.17;100.00;100388.66;6243756;22;20066;-74
2022/12/26 08:21:31;;;;;;;8.20;6.90;;;;;;;8.20;100.00;100406.03;6270304;22;20020;-75
2022/12/26 08:23:58;;;;;;;11.55;7.72;;;;;;;8.29;100.00;100392.97;6244698;22;20035;-76
2022/12/26 08:26:24;;;;;;;11.52;7.45;;;;;;;8.34;100.00;100400.78;6244008;22;20019;-74
2022/12/26 08:28:51;;;;;;;8.82;6.75;;;;;;;8.34;100.00;100412.06;6244549;22;20023;-75
2022/12/26 08:31:20;;;;;;;10.32;7.13;;;;;;;8.34;100.00;100392.97;6243654;22;20891;-74
2022/12/26 08:33:47;;;;;;;10.05;6.60;;;;;;;8.37;100.00;100396.44;6244947;22;20026;-77
2022/12/26 08:36:15;;;;;;;8.00;6.47;;;;;;;8.48;100.00;100400.78;6219501;22;20012;-76
2022/12/26 08:38:42;;;;;;;8.55;7.22;;;;;;;8.49;100.00;100398.16;6219544;22;20019;-75
2022/12/26 08:41:09;;;;;;;9.88;6.55;;;;;;;8.47;100.00;100410.31;6242866;22;20039;-75
2022/12/26 08:43:36;;;;;;;7.70;6.18;;;;;;;8.48;100.00;100411.22;6242779;22;20021;-75
2022/12/26 08:46:09;;;;;;;9.23;6.70;;;;;;;8.49;100.00;100405.97;6241505;22;20139;-75
2022/12/26 08:48:38;;;;;;;9.02;6.70;;;;;;;8.47;100.00;100409.47;6243875;22;20446;-75
2022/12/26 08:51:14;;;;;;;9.77;6.68;;;;;;;8.45;100.00;100412.06;6243508;22;20035;-75
2022/12/26 08:53:41;;;;;;;7.68;5.95;;;;;;;8.37;100.00;100409.47;6245320;22;20062;-75
2022/12/26 08:59:17;;;;;;;7.97;5.30;;;;;;;8.44;100.00;100412.91;6096661;23;20070;-76
2022/12/26 09:01:44;;;;;;;9.60;6.53;;;;;;;8.40;100.00;100413.81;6133550;22;20213;-75
2022/12/26 09:04:10;;;;;;;7.32;5.70;;;;;;;8.43;100.00;100414.66;6245108;22;20018;-76
2022/12/26 09:06:38;;;;;;;6.95;5.18;;;;;;;8.47;100.00;100422.50;6219192;22;20034;-75
2022/12/26 09:09:12;;;;;;;6.88;5.05;;;;;;;8.52;100.00;100431.19;6245713;22;20015;-75
2022/12/26 09:11:40;;;;;;;5.15;4.38;;;;;;;8.61;100.00;100437.22;6218623;22;20019;-75
2022/12/26 09:14:07;;;;;;;7.20;4.90;;;;;;;8.64;100.00;100427.66;6245290;22;20065;-75
2022/12/26 09:16:42;;;;;;;5.72;5.13;;;;;;;8.65;100.00;100432.00;6246296;22;20008;-74
2022/12/26 09:19:16;;;;;;;5.35;4.78;;;;;;;8.67;100.00;100454.59;6221242;22;20012;-75
2022/12/26 09:21:43;;;;;;;5.38;4.88;;;;;;;8.72;100.00;100445.00;6245065;22;20012;-74
2022/12/26 09:24:16;;;;;;;5.53;4.95;;;;;;;8.71;100.00;100445.88;6220128;22;20022;-76
2022/12/26 09:26:43;;;;;;;5.07;4.00;;;;;;;8.81;100.00;100440.63;6244525;22;20015;-76
2022/12/26 09:29:12;;;;;;;4.97;4.47;;;;;;;8.82;100.00;100435.38;6244178;22;20012;-75
2022/12/26 09:31:39;;;;;;;6.10;3.83;;;;;;;8.85;100.00;100440.59;6243746;22;20016;-75
2022/12/26 09:34:06;;;;;;;5.50;4.85;;;;;;;8.87;100.00;100437.97;6271938;22;20410;-76
2022/12/26 09:36:38;;;;;;;4.32;3.92;;;;;;;8.90;100.00;100446.66;6220247;22;20015;-75
2022/12/26 09:39:06;;;;;;;5.13;3.88;;;;;;;8.88;100.00;100440.56;6245205;22;20094;-75
2022/12/26 09:41:54;;;;;;;4.32;3.92;;;;;;;8.90;100.00;100443.16;6243869;22;20012;-75
2022/12/26 09:44:45;;;;;;;4.22;3.92;;;;;;;8.97;100.00;100433.56;6244266;22;20023;-75
2022/12/26 09:47:35;;;;;;;9.00;5.10;;;;;;;9.00;100.00;100436.16;6244184;22;20020;-75
2022/12/26 09:50:32;;;;;;;3.97;3.67;;;;;;;8.98;100.00;100437.91;6243930;22;20015;-75
2022/12/26 09:53:10;;;;;;;10.63;3.97;;;;;;;8.99;100.00;100424.84;6245078;22;20007;-75
2022/12/26 09:55:42;;;;;;;6.53;4.53;;;;;;;9.00;100.00;100423.13;6244117;22;20025;-75
2022/12/26 09:58:28;;;;;;;5.50;4.72;;;;;;;9.11;100.00;100423.88;6242646;22;20027;-74
2022/12/26 10:01:10;;;;;;;5.53;4.45;;;;;;;9.20;100.00;100423.81;6242699;22;20011;-75
2022/12/26 10:03:55;;;;;;;6.03;4.63;;;;;;;9.23;100.00;100410.75;6242780;22;20019;-74
2022/12/26 10:06:25;;;;;;;5.30;4.75;;;;;;;9.22;100.00;100418.63;6244042;22;20011;-74
2022/12/26 10:09:44;;;;;;;5.07;4.18;;;;;;;9.21;100.00;100425.56;6218988;22;20016;-75
2022/12/26 10:12:37;;;;;;;6.28;5.68;;;;;;;9.24;100.00;100435.13;6242598;22;20058;-76
2022/12/26 10:15:25;;;;;;;7.30;4.60;;;;;;;9.24;100.00;100440.34;6217634;22;20024;-76
2022/12/26 10:18:20;;;;;;;5.45;4.93;;;;;;;9.24;100.00;100436.00;6218804;22;20019;-75
2022/12/26 10:21:25;;;;;;;6.95;5.15;;;;;;;9.30;100.00;100437.69;6243442;22;20035;-75
2022/12/26 10:24:01;;;;;;;5.20;4.70;;;;;;;9.35;100.00;100430.69;6243084;22;20023;-75
2022/12/26 10:26:37;;;;;;;5.85;4.75;;;;;;;9.44;100.00;100429.78;6219646;22;20016;-75
2022/12/26 10:29:09;;;;;;;6.15;5.43;;;;;;;9.50;100.00;100426.22;6244800;22;20030;-74
2022/12/26 10:31:50;;;;;;;6.95;5.38;;;;;;;9.56;100.00;100436.66;6270152;22;20588;-75
2022/12/26 10:34:37;;;;;;;8.98;6.43;;;;;;;9.57;100.00;100441.00;6243707;22;20049;-75
2022/12/26 10:37:34;;;;;;;5.43;4.55;;;;;;;9.60;100.00;100433.13;6241845;22;20020;-75
2022/12/26 10:40:22;;;;;;;7.55;5.15;;;;;;;9.61;100.00;100419.19;6243746;22;20299;-75
2022/12/26 10:42:56;;;;;;;6.30;5.18;;;;;;;9.60;100.00;100417.44;6217750;22;20323;-75
2022/12/26 10:45:38;;;;;;;6.10;4.63;;;;;;;9.59;100.00;100426.16;6243525;22;20022;-75
2022/12/26 10:48:05;;;;;;;4.25;3.95;;;;;;;9.58;100.00;100411.34;6218887;22;20015;-75
2022/12/26 10:50:34;;;;;;;13.68;4.63;;;;;;;9.49;100.00;100412.31;6243268;22;20024;-75
2022/12/26 10:53:05;;;;;;;4.50;4.10;;;;;;;9.43;100.00;100415.81;6243567;22;20018;-76
2022/12/26 10:55:34;;;;;;;4.47;4.07;;;;;;;9.37;100.00;100423.72;6244193;22;20012;-76
2022/12/26 10:58:11;;;;;;;5.18;4.75;;;;;;;9.32;100.00;100414.19;6242701;22;20012;-76
2022/12/26 11:00:38;;;;;;;4.88;4.28;;;;;;;9.29;100.00;100417.69;6242368;22;20628;-76
2022/12/26 11:03:14;;;;;;;6.40;4.95;;;;;;;9.48;100.00;100420.13;6243645;22;20038;-75
2022/12/26 11:05:47;;;;;;;6.53;4.53;;;;;;;9.65;100.00;100418.25;6245863;22;20016;-75
2022/12/26 11:08:31;;;;;;;3.95;3.67;;;;;;;9.72;100.00;100442.59;6243712;22;20026;-76
2022/12/26 11:11:07;;;;;;;3.22;3.00;;;;;;;9.69;100.00;100429.56;6243177;22;20019;-75
2022/12/26 11:13:41;;;;;;;6.75;2.95;;;;;;;9.69;100.00;100429.56;6242715;22;20029;-76
2022/12/26 11:16:09;;;;;;;3.80;3.38;;;;;;;9.72;100.00;100437.38;6270623;22;20043;-76
2022/12/26 11:18:50;;;;;;;3.67;3.42;;;;;;;9.71;100.00;100425.19;6271286;22;20377;-75
2022/12/26 11:21:17;;;;;;;7.85;3.92;;;;;;;9.64;100.00;100432.22;6218865;22;20016;-76
2022/12/26 11:23:45;;;;;;;3.45;3.15;;;;;;;9.64;100.00;100419.13;6272143;22;20007;-75
2022/12/26 11:26:34;;;;;;;3.25;3.05;;;;;;;9.71;100.00;100433.91;6219989;22;20046;-75
2022/12/26 11:29:11;;;;;;;3.45;2.88;;;;;;;9.89;100.00;100429.38;6224064;22;20023;-76
2022/12/26 11:31:43;;;;;;;3.35;3.15;;;;;;;9.96;100.00;100425.81;6223526;22;20736;-76
2022/12/26 11:34:24;;;;;;;7.88;4.55;;;;;;;9.99;100.00;100424.94;6275485;22;20015;-77
2022/12/26 11:36:51;;;;;;;4.00;2.85;;;;;;;9.99;99.82;100423.16;6247927;22;20016;-75
2022/12/26 11:39:28;;;;;;;7.53;3.17;;;;;;;9.94;99.88;100412.75;6250195;22;20781;-74
2022/12/26 11:41:55;;;;;;;3.97;3.72;;;;;;;9.93;99.99;100418.88;6248398;22;20012;-74
2022/12/26 11:44:30;;;;;;;3.88;3.38;;;;;;;9.89;99.72;100411.91;6249138;22;20050;-77
2022/12/26 11:47:14;;;;;;;3.80;3.47;;;;;;;10.02;99.38;100411.81;6271556;22;20039;-74
2022/12/26 11:49:41;;;;;;;;;;;;;;;10.05;99.06;100399.56;6247277;22;20090;-75
2022/12/26 11:52:42;;;;;;;4.07;3.50;;;;;;;10.12;98.57;100392.53;6269879;22;19919;-75
2022/12/26 11:55:24;;;;;;;3.22;3.03;;;;;;;10.20;95.67;100389.81;6274299;22;20012;-75
2022/12/26 11:58:09;;;;;;;5.13;2.97;;;;;;;10.16;96.44;100382.91;6273360;22;20026;-75
2022/12/26 12:00:39;;;;;;;5.22;3.40;;;;;;;10.12;96.04;100384.66;6245209;22;20098;-75
2022/12/26 12:03:14;;;;;;;2.78;2.53;;;;;;;10.12;95.94;100376.81;6244499;22;20019;-75
2022/12/26 12:06:24;;;;;;;3.10;2.25;;;;;;;10.06;96.71;100388.25;6245803;22;20012;-76
2022/12/26 12:09:03;;;;;;;3.63;2.92;;;;;;;9.97;97.66;100383.06;6245517;22;20054;-75
2022/12/26 12:11:53;;;;;;;3.17;2.72;;;;;;;9.92;98.55;100393.59;6270705;22;20020;-75
2022/12/26 12:15:17;;;;;;;2.85;2.65;;;;;;;9.83;99.58;100392.81;6244333;22;20015;-76
2022/12/26 12:18:02;;;;;;;8.02;2.72;;;;;;;9.74;100.00;100385.97;6205341;22;20012;-75
2022/12/26 12:21:10;;;;;;;3.70;2.45;;;;;;;9.67;100.00;100385.13;6249447;22;20015;-75
2022/12/26 12:24:15;;;;;;;3.60;3.28;;;;;;;9.56;100.00;100387.00;6250864;22;20071;-75
2022/12/26 12:27:33;;;;;;;3.58;2.97;;;;;;;9.58;100.00;100366.91;6224844;22;20030;-75
2022/12/26 12:30:34;;;;;;;3.05;2.30;;;;;;;9.69;100.00;100353.78;6273964;22;20073;-76
2022/12/26 12:33:29;;;;;;;2.90;2.72;;;;;;;9.77;99.84;100365.84;6250406;22;20054;-75
2022/12/26 12:36:13;;;;;;;2.28;2.17;;;;;;;9.87;97.69;100363.16;6247519;22;20012;-76
2022/12/26 12:39:16;;;;;;;3.28;2.75;;;;;;;9.87;97.61;100358.78;6251197;22;20014;-75
2022/12/26 12:42:17;;;;;;;2.50;2.30;;;;;;;10.06;95.50;100356.84;6247910;22;20061;-75
2022/12/26 12:45:05;;;;;;;3.63;2.38;;;;;;;10.17;95.01;100353.22;6277110;22;20079;-76
2022/12/26 12:47:55;;;;;;;2.58;2.17;;;;;;;10.15;94.21;100358.47;6250684;22;20091;-75
2022/12/26 12:50:38;;;;;;;2.75;2.10;;;;;;;10.24;92.89;100358.34;6275684;22;20657;-76
2022/12/26 12:53:31;;;;;;;5.47;2.65;;;;;;;10.24;93.50;100363.59;6251150;22;20019;-74
2022/12/26 12:56:12;;;;;;;4.22;2.92;;;;;;;10.19;93.53;100357.53;6248466;22;20026;-76
2022/12/26 12:59:32;;;;;;;2.45;2.30;;;;;;;10.20;93.64;100353.19;6250053;22;20042;-75
2022/12/26 13:02:33;;;;;;;2.10;2.00;;;;;;;10.20;94.11;100356.66;6275567;22;20011;-75
2022/12/26 13:05:24;;;;;;;2.83;2.60;;;;;;;10.22;93.74;100362.75;6270335;22;20011;-75
2022/12/26 13:08:12;;;;;;;2.55;2.20;;;;;;;10.28;92.45;100340.88;6280623;22;20019;-76
2022/12/26 13:10:51;;;;;;;2.30;2.20;;;;;;;10.30;92.79;100356.56;6252966;22;20070;-75
2022/12/26 13:13:37;;;;;;;3.30;3.10;;;;;;;10.33;93.04;100351.28;6250872;22;20089;-74
2022/12/26 13:16:30;;;;;;;4.95;2.50;;;;;;;10.38;92.51;100350.38;6254467;22;20095;-75
2022/12/26 13:19:04;;;;;;;4.60;2.60;;;;;;;10.41;92.37;100352.09;6250134;22;20039;-75
2022/12/26 13:21:39;;;;;;;;;;;;;;;10.35;92.17;100355.66;6248229;22;20014;-75
2022/12/26 13:24:24;;;;;;;4.30;3.38;;;;;;;10.28;93.01;100364.41;6226742;22;19939;-73
2022/12/26 13:26:57;;;;;;;5.15;2.35;;;;;;;10.27;92.75;100360.94;6274321;22;20020;-76
2022/12/26 13:29:46;;;;;;;2.55;2.33;;;;;;;10.18;93.44;100363.69;6218762;22;20023;-75
2022/12/26 13:32:27;;;;;;;2.08;1.98;;;;;;;10.22;92.11;100339.22;6242813;22;20023;-76
2022/12/26 13:35:00;;;;;;;3.28;2.45;;;;;;;10.18;92.65;100355.84;6219403;22;20016;-76
2022/12/26 13:37:39;;;;;;;5.20;2.33;;;;;;;10.10;95.13;100368.13;6242674;22;20069;-75
2022/12/26 13:40:12;;;;;;;3.08;1.85;;;;;;;9.91;97.81;100381.41;6267897;22;20012;-76
2022/12/26 13:45:37;;;;;;;4.68;2.70;;;;;;;9.35;100.00;100388.91;6246982;22;20086;-75
2022/12/26 13:48:15;;;;;;;2.72;2.53;;;;;;;9.06;100.00;100407.38;6268975;22;20011;-76
2022/12/26 13:51:00;;;;;;;3.30;3.10;;;;;;;8.83;100.00;100410.16;6268920;22;20014;-75
2022/12/26 13:53:26;;;;;;;5.72;3.42;;;;;;;8.80;100.00;100416.28;6241661;22;20091;-76
2022/12/26 13:55:57;;;;;;;6.15;4.10;;;;;;;8.70;100.00;100440.69;6268560;22;20015;-76
2022/12/26 13:58:44;;;;;;;9.45;4.60;;;;;;;8.59;100.00;100436.38;6215054;22;20083;-76
2022/12/26 14:01:25;;;;;;;5.82;4.40;;;;;;;8.49;100.00;100449.47;6239310;22;20026;-76
2022/12/26 14:04:29;;;;;;;4.75;4.25;;;;;;;8.37;100.00;100442.50;6240459;22;20046;-76
2022/12/26 14:07:29;;;;;;;3.72;3.33;;;;;;;8.28;100.00;100461.66;6267622;22;20023;-76